HAZ1754 ZHCC-ZUUU
Flight info
| Callsign | HAZ1754 |
|---|---|
| Flight time | N/A |
| Altitude | 36100 |
| Route | DUD9W DUDBI W37 UDUMI W80 URGEG W231 EKOKA EKOKA4C |
| Aircraft | A320/M-SDE3FGHIRWY/LB1 |
Departure
| Time | 2026-04-24 01:56 |
|---|---|
| Airport | Zhengzhou Xinzheng International Airport (ZHCC) |
Arrival
| Time | N/A |
|---|---|
| Airport | Chengdu Shuangliu International Airport (ZUUU) |
| Time | Latitude | Longitude | Altitude | Speed | Heading |
|---|---|---|---|---|---|
| 2026-04-24 01:45 | 34.53136 | 113.85266 | 497 ft | 0 kts | 202° |
| 2026-04-24 01:49 | 34.53138 | 113.85268 | 498 ft | 0 kts | 201° |
| 2026-04-24 01:49 | 34.53150 | 113.85272 | 498 ft | 2 kts | 211° |
| 2026-04-24 01:49 | 34.53164 | 113.85274 | 498 ft | 2 kts | 170° |
| 2026-04-24 01:50 | 34.53178 | 113.85268 | 498 ft | 2 kts | 142° |
| 2026-04-24 01:50 | 34.53188 | 113.85254 | 498 ft | 2 kts | 115° |
| 2026-04-24 01:50 | 34.53193 | 113.85239 | 498 ft | 0 kts | 111° |
| 2026-04-24 01:50 | 34.53193 | 113.85237 | 498 ft | 0 kts | 112° |
| 2026-04-24 01:52 | 34.53189 | 113.85250 | 498 ft | 3 kts | 111° |
| 2026-04-24 01:52 | 34.53175 | 113.85296 | 497 ft | 8 kts | 110° |
| 2026-04-24 01:52 | 34.53207 | 113.85359 | 493 ft | 13 kts | 359° |
| 2026-04-24 01:52 | 34.53257 | 113.85284 | 497 ft | 11 kts | 291° |
| 2026-04-24 01:53 | 34.53313 | 113.85226 | 498 ft | 12 kts | 354° |
| 2026-04-24 01:53 | 34.53390 | 113.85169 | 498 ft | 14 kts | 291° |
| 2026-04-24 01:53 | 34.53428 | 113.85043 | 499 ft | 16 kts | 292° |
| 2026-04-24 01:53 | 34.53473 | 113.84908 | 500 ft | 17 kts | 291° |
| 2026-04-24 01:54 | 34.53520 | 113.84770 | 503 ft | 17 kts | 294° |
| 2026-04-24 01:54 | 34.53569 | 113.84638 | 508 ft | 16 kts | 293° |
| 2026-04-24 01:54 | 34.53615 | 113.84535 | 511 ft | 11 kts | 328° |
| 2026-04-24 01:54 | 34.53697 | 113.84553 | 511 ft | 12 kts | 26° |
| 2026-04-24 01:55 | 34.53760 | 113.84627 | 510 ft | 13 kts | 94° |
| 2026-04-24 01:55 | 34.53719 | 113.84753 | 508 ft | 22 kts | 114° |
| 2026-04-24 01:55 | 34.53564 | 113.85195 | 497 ft | 92 kts | 113° |
| 2026-04-24 01:55 | 34.53237 | 113.86163 | 478 ft | 153 kts | 112° |
| 2026-04-24 01:56 | 34.52810 | 113.87488 | 837 ft | 170 kts | 116° |
| 2026-04-24 01:56 | 34.52368 | 113.88826 | 1528 ft | 169 kts | 118° |
| 2026-04-24 01:56 | 34.51900 | 113.90108 | 2273 ft | 166 kts | 118° |
| 2026-04-24 01:56 | 34.51406 | 113.91430 | 2726 ft | 179 kts | 118° |
| 2026-04-24 01:57 | 34.50877 | 113.92880 | 3066 ft | 195 kts | 116° |
| 2026-04-24 01:57 | 34.50321 | 113.94443 | 3398 ft | 212 kts | 115° |
| 2026-04-24 01:57 | 34.49711 | 113.96187 | 3666 ft | 235 kts | 115° |
| 2026-04-24 01:57 | 34.49048 | 113.98093 | 4099 ft | 253 kts | 114° |
| 2026-04-24 01:58 | 34.48350 | 114.00105 | 4561 ft | 269 kts | 114° |
| 2026-04-24 01:58 | 34.47615 | 114.02224 | 5283 ft | 274 kts | 113° |
| 2026-04-24 01:58 | 34.46788 | 114.04304 | 6028 ft | 278 kts | 126° |
| 2026-04-24 01:58 | 34.45380 | 114.05862 | 6755 ft | 281 kts | 153° |
| 2026-04-24 01:59 | 34.43483 | 114.06499 | 7549 ft | 282 kts | 174° |
| 2026-04-24 01:59 | 34.41529 | 114.06718 | 8331 ft | 286 kts | 175° |
| 2026-04-24 01:59 | 34.39539 | 114.06936 | 9088 ft | 290 kts | 175° |
| 2026-04-24 01:59 | 34.37533 | 114.07169 | 9610 ft | 292 kts | 175° |
| 2026-04-24 02:00 | 34.35495 | 114.07419 | 9865 ft | 292 kts | 174° |
| 2026-04-24 02:00 | 34.33453 | 114.07708 | 9874 ft | 292 kts | 170° |
| 2026-04-24 02:00 | 34.31462 | 114.08347 | 9879 ft | 292 kts | 161° |
| 2026-04-24 02:00 | 34.29491 | 114.09066 | 10070 ft | 299 kts | 174° |
| 2026-04-24 02:01 | 34.27431 | 114.08745 | 10553 ft | 310 kts | 204° |
| 2026-04-24 02:01 | 34.25659 | 114.07145 | 10902 ft | 325 kts | 233° |
| 2026-04-24 02:01 | 34.24689 | 114.04628 | 11224 ft | 341 kts | 256° |
| 2026-04-24 02:01 | 34.24173 | 114.01760 | 11642 ft | 354 kts | 258° |
| 2026-04-24 02:02 | 34.23643 | 113.98824 | 12303 ft | 358 kts | 258° |
| 2026-04-24 02:02 | 34.23084 | 113.95882 | 13007 ft | 361 kts | 257° |
| 2026-04-24 02:02 | 34.22492 | 113.92892 | 13682 ft | 364 kts | 257° |
| 2026-04-24 02:02 | 34.21883 | 113.89903 | 14337 ft | 367 kts | 257° |
| 2026-04-24 02:03 | 34.20635 | 113.83900 | 15598 ft | 372 kts | 257° |
| 2026-04-24 02:03 | 34.19991 | 113.80834 | 16210 ft | 375 kts | 257° |
| 2026-04-24 02:03 | 34.19342 | 113.77757 | 16807 ft | 377 kts | 258° |
| 2026-04-24 02:04 | 34.18691 | 113.74683 | 17381 ft | 379 kts | 258° |
| 2026-04-24 02:04 | 34.18026 | 113.71555 | 17947 ft | 382 kts | 258° |
| 2026-04-24 02:04 | 34.17372 | 113.68481 | 18501 ft | 384 kts | 258° |
| 2026-04-24 02:04 | 34.16706 | 113.65352 | 19034 ft | 386 kts | 258° |
| 2026-04-24 02:05 | 34.16030 | 113.62186 | 19561 ft | 388 kts | 258° |
| 2026-04-24 02:05 | 34.15348 | 113.58997 | 20093 ft | 390 kts | 258° |
| 2026-04-24 02:05 | 34.14671 | 113.55828 | 20591 ft | 392 kts | 258° |
| 2026-04-24 02:05 | 34.13983 | 113.52617 | 21093 ft | 394 kts | 258° |
| 2026-04-24 02:06 | 34.13290 | 113.49391 | 21592 ft | 395 kts | 258° |
| 2026-04-24 02:06 | 34.12600 | 113.46182 | 22240 ft | 393 kts | 259° |
| 2026-04-24 02:06 | 34.11914 | 113.43003 | 22882 ft | 390 kts | 259° |
| 2026-04-24 02:06 | 34.11220 | 113.39779 | 23244 ft | 395 kts | 259° |
| 2026-04-24 02:07 | 34.10530 | 113.36568 | 23417 ft | 404 kts | 259° |
| 2026-04-24 02:07 | 34.09808 | 113.33221 | 23600 ft | 412 kts | 258° |
| 2026-04-24 02:07 | 34.09068 | 113.29797 | 23777 ft | 419 kts | 258° |
| 2026-04-24 02:07 | 34.08325 | 113.26366 | 24043 ft | 424 kts | 258° |
| 2026-04-24 02:08 | 34.07571 | 113.22898 | 24451 ft | 425 kts | 258° |
| 2026-04-24 02:08 | 34.06814 | 113.19421 | 24858 ft | 426 kts | 258° |
| 2026-04-24 02:08 | 34.06060 | 113.15964 | 25260 ft | 427 kts | 258° |
| 2026-04-24 02:08 | 34.05314 | 113.12547 | 25660 ft | 427 kts | 258° |
| 2026-04-24 02:09 | 34.04560 | 113.09095 | 26065 ft | 427 kts | 258° |
| 2026-04-24 02:09 | 34.03807 | 113.05653 | 26470 ft | 427 kts | 258° |
| 2026-04-24 02:09 | 34.03055 | 113.02224 | 26873 ft | 427 kts | 258° |
| 2026-04-24 02:09 | 34.02299 | 112.98778 | 27285 ft | 427 kts | 257° |
| 2026-04-24 02:10 | 34.01543 | 112.95331 | 27696 ft | 426 kts | 257° |
| 2026-04-24 02:10 | 34.00788 | 112.91896 | 28106 ft | 425 kts | 257° |
| 2026-04-24 02:10 | 34.00024 | 112.88435 | 28523 ft | 424 kts | 257° |
| 2026-04-24 02:10 | 33.99260 | 112.84975 | 28937 ft | 422 kts | 257° |
| 2026-04-24 02:11 | 33.98499 | 112.81532 | 29351 ft | 421 kts | 257° |
| 2026-04-24 02:11 | 33.97743 | 112.78125 | 29764 ft | 419 kts | 257° |
| 2026-04-24 02:11 | 33.96981 | 112.74683 | 30187 ft | 417 kts | 257° |
| 2026-04-24 02:11 | 33.96232 | 112.71307 | 30593 ft | 415 kts | 257° |
| 2026-04-24 02:12 | 33.95485 | 112.67942 | 30957 ft | 413 kts | 257° |
| 2026-04-24 02:12 | 33.94740 | 112.64589 | 31324 ft | 411 kts | 257° |
| 2026-04-24 02:12 | 33.93995 | 112.61246 | 31695 ft | 409 kts | 257° |
| 2026-04-24 02:12 | 33.93253 | 112.57918 | 32059 ft | 406 kts | 257° |
| 2026-04-24 02:13 | 33.92514 | 112.54608 | 32426 ft | 404 kts | 257° |
| 2026-04-24 02:13 | 33.91782 | 112.51338 | 32788 ft | 401 kts | 257° |
| 2026-04-24 02:13 | 33.91050 | 112.48074 | 33159 ft | 398 kts | 257° |
| 2026-04-24 02:13 | 33.90326 | 112.44846 | 33525 ft | 395 kts | 256° |
| 2026-04-24 02:14 | 33.89606 | 112.41642 | 33893 ft | 392 kts | 256° |
| 2026-04-24 02:14 | 33.88894 | 112.38474 | 34255 ft | 389 kts | 256° |
| 2026-04-24 02:14 | 33.88182 | 112.35317 | 34584 ft | 385 kts | 256° |
| 2026-04-24 02:14 | 33.87478 | 112.32207 | 34905 ft | 382 kts | 256° |
| 2026-04-24 02:15 | 33.86775 | 112.29096 | 35226 ft | 379 kts | 256° |
| 2026-04-24 02:15 | 33.86084 | 112.26047 | 35537 ft | 375 kts | 256° |
| 2026-04-24 02:15 | 33.85397 | 112.23013 | 35842 ft | 371 kts | 256° |
| 2026-04-24 02:15 | 33.84706 | 112.19962 | 36114 ft | 369 kts | 256° |
| 2026-04-24 02:16 | 33.83336 | 112.13918 | 36190 ft | 379 kts | 256° |
| 2026-04-24 02:16 | 33.81926 | 112.07719 | 36188 ft | 390 kts | 256° |
| 2026-04-24 02:17 | 33.80453 | 112.01261 | 36178 ft | 400 kts | 256° |
| 2026-04-24 02:17 | 33.78942 | 111.94664 | 36175 ft | 409 kts | 256° |
| 2026-04-24 02:18 | 33.77409 | 111.87987 | 36178 ft | 416 kts | 256° |
| 2026-04-24 02:18 | 33.75851 | 111.81220 | 36179 ft | 420 kts | 256° |
| 2026-04-24 02:19 | 33.74283 | 111.74427 | 36180 ft | 420 kts | 256° |
| 2026-04-24 02:19 | 33.72705 | 111.67606 | 36190 ft | 420 kts | 256° |
| 2026-04-24 02:20 | 33.71115 | 111.60759 | 36194 ft | 420 kts | 256° |
| 2026-04-24 02:20 | 33.69532 | 111.53958 | 36202 ft | 419 kts | 256° |
| 2026-04-24 02:21 | 33.67951 | 111.47184 | 36202 ft | 419 kts | 256° |
| 2026-04-24 02:21 | 33.66365 | 111.40408 | 36198 ft | 419 kts | 256° |
| 2026-04-24 02:22 | 33.64773 | 111.33620 | 36201 ft | 420 kts | 256° |
| 2026-04-24 02:22 | 33.63168 | 111.26796 | 36198 ft | 420 kts | 256° |
| 2026-04-24 02:23 | 33.61562 | 111.19988 | 36199 ft | 420 kts | 256° |
| 2026-04-24 02:23 | 33.59952 | 111.13183 | 36190 ft | 420 kts | 256° |
| 2026-04-24 02:24 | 33.58345 | 111.06411 | 36180 ft | 420 kts | 256° |
| 2026-04-24 02:24 | 33.56735 | 110.99649 | 36175 ft | 420 kts | 256° |
| 2026-04-24 02:25 | 33.55111 | 110.92842 | 36172 ft | 419 kts | 256° |
| 2026-04-24 02:25 | 33.53795 | 110.85973 | 36171 ft | 419 kts | 261° |
| 2026-04-24 02:26 | 33.53042 | 110.79012 | 36168 ft | 418 kts | 265° |
| 2026-04-24 02:26 | 33.52505 | 110.71967 | 36170 ft | 418 kts | 266° |
| 2026-04-24 02:27 | 33.51969 | 110.64951 | 36177 ft | 418 kts | 266° |
| 2026-04-24 02:27 | 33.51432 | 110.57962 | 36177 ft | 419 kts | 266° |
| 2026-04-24 02:28 | 33.50890 | 110.50957 | 36178 ft | 419 kts | 266° |
| 2026-04-24 02:28 | 33.50345 | 110.43966 | 36183 ft | 419 kts | 266° |
| 2026-04-24 02:29 | 33.49792 | 110.36907 | 36177 ft | 419 kts | 266° |
| 2026-04-24 02:29 | 33.49235 | 110.29864 | 36181 ft | 419 kts | 265° |
| 2026-04-24 02:30 | 33.48674 | 110.22830 | 36175 ft | 420 kts | 265° |
| 2026-04-24 02:30 | 33.48112 | 110.15816 | 36176 ft | 419 kts | 266° |
| 2026-04-24 02:31 | 33.47545 | 110.08803 | 36178 ft | 420 kts | 266° |
| 2026-04-24 02:31 | 33.46976 | 110.01798 | 36176 ft | 420 kts | 266° |
| 2026-04-24 02:32 | 33.46397 | 109.94731 | 36177 ft | 420 kts | 266° |
| 2026-04-24 02:32 | 33.45820 | 109.87731 | 36182 ft | 420 kts | 266° |
| 2026-04-24 02:33 | 33.45233 | 109.80679 | 36178 ft | 420 kts | 266° |
| 2026-04-24 02:33 | 33.44647 | 109.73682 | 36185 ft | 420 kts | 266° |
| 2026-04-24 02:34 | 33.44056 | 109.66670 | 36190 ft | 421 kts | 266° |
| 2026-04-24 02:34 | 33.43460 | 109.59634 | 36195 ft | 421 kts | 266° |
| 2026-04-24 02:35 | 33.42861 | 109.52610 | 36196 ft | 421 kts | 266° |
| 2026-04-24 02:35 | 33.42256 | 109.45584 | 36201 ft | 421 kts | 266° |
| 2026-04-24 02:36 | 33.41649 | 109.38560 | 36217 ft | 421 kts | 266° |
| 2026-04-24 02:36 | 33.41033 | 109.31502 | 36231 ft | 422 kts | 266° |
| 2026-04-24 02:37 | 33.40412 | 109.24423 | 36246 ft | 422 kts | 266° |
| 2026-04-24 02:37 | 33.39787 | 109.17328 | 36244 ft | 422 kts | 266° |
| 2026-04-24 02:38 | 33.39164 | 109.10323 | 36237 ft | 422 kts | 266° |
| 2026-04-24 02:38 | 33.38535 | 109.03299 | 36231 ft | 422 kts | 266° |
| 2026-04-24 02:39 | 33.37900 | 108.96237 | 36222 ft | 422 kts | 266° |
| 2026-04-24 02:39 | 33.37258 | 108.89163 | 36219 ft | 423 kts | 266° |
| 2026-04-24 02:40 | 33.36617 | 108.82116 | 36227 ft | 423 kts | 266° |
| 2026-04-24 02:40 | 33.35970 | 108.75078 | 36232 ft | 423 kts | 266° |
| 2026-04-24 02:41 | 33.35317 | 108.68028 | 36242 ft | 423 kts | 266° |
| 2026-04-24 02:41 | 33.34665 | 108.61007 | 36245 ft | 423 kts | 266° |
| 2026-04-24 02:42 | 33.34002 | 108.53946 | 36263 ft | 422 kts | 266° |
| 2026-04-24 02:42 | 33.33339 | 108.46919 | 36269 ft | 422 kts | 266° |
| 2026-04-24 02:43 | 33.32554 | 108.39906 | 36252 ft | 424 kts | 262° |
| 2026-04-24 02:43 | 33.30974 | 108.32993 | 36245 ft | 428 kts | 253° |
| 2026-04-24 02:44 | 33.28520 | 108.26404 | 36253 ft | 433 kts | 245° |
| 2026-04-24 02:44 | 33.26953 | 108.23233 | 36470 ft | 436 kts | 242° |
| 2026-04-24 02:44 | 33.25219 | 108.20232 | 36344 ft | 436 kts | 239° |
| 2026-04-24 02:45 | 33.21637 | 108.14305 | 36263 ft | 436 kts | 239° |
| 2026-04-24 02:45 | 33.18038 | 108.08376 | 36242 ft | 436 kts | 239° |
| 2026-04-24 02:46 | 33.14442 | 108.02451 | 36230 ft | 436 kts | 239° |
| 2026-04-24 02:46 | 33.10870 | 107.96573 | 36231 ft | 436 kts | 239° |
| 2026-04-24 02:47 | 33.07268 | 107.90662 | 36226 ft | 437 kts | 239° |
| 2026-04-24 02:47 | 33.03670 | 107.84760 | 36215 ft | 437 kts | 239° |
| 2026-04-24 02:48 | 33.00074 | 107.78870 | 36203 ft | 437 kts | 239° |
| 2026-04-24 02:48 | 32.96452 | 107.72948 | 36195 ft | 438 kts | 239° |
| 2026-04-24 02:49 | 32.92817 | 107.67013 | 36196 ft | 437 kts | 239° |
| 2026-04-24 02:49 | 32.89188 | 107.61098 | 36203 ft | 438 kts | 239° |
| 2026-04-24 02:50 | 32.85547 | 107.55174 | 36208 ft | 440 kts | 239° |
| 2026-04-24 02:50 | 32.81906 | 107.49259 | 36215 ft | 439 kts | 239° |
| 2026-04-24 02:51 | 32.78257 | 107.43342 | 36272 ft | 439 kts | 239° |
| 2026-04-24 02:51 | 32.76431 | 107.40384 | 36051 ft | 439 kts | 240° |
| 2026-04-24 02:51 | 32.74625 | 107.37461 | 36169 ft | 439 kts | 240° |
| 2026-04-24 02:52 | 32.70956 | 107.31525 | 36240 ft | 442 kts | 239° |
| 2026-04-24 02:52 | 32.67276 | 107.25582 | 36253 ft | 443 kts | 239° |
| 2026-04-24 02:53 | 32.63597 | 107.19652 | 36255 ft | 443 kts | 239° |
| 2026-04-24 02:53 | 32.59903 | 107.13707 | 36255 ft | 444 kts | 239° |
| 2026-04-24 02:54 | 32.56195 | 107.07752 | 36254 ft | 444 kts | 239° |
| 2026-04-24 02:54 | 32.52497 | 107.01820 | 36260 ft | 446 kts | 239° |
| 2026-04-24 02:55 | 32.48779 | 106.95864 | 36262 ft | 446 kts | 240° |
| 2026-04-24 02:55 | 32.45058 | 106.89914 | 36249 ft | 446 kts | 239° |
| 2026-04-24 02:56 | 32.41330 | 106.83962 | 36247 ft | 447 kts | 239° |
| 2026-04-24 02:56 | 32.37585 | 106.77994 | 36237 ft | 446 kts | 240° |
| 2026-04-24 02:57 | 32.33840 | 106.72035 | 36230 ft | 446 kts | 240° |
| 2026-04-24 02:57 | 32.30124 | 106.66129 | 36234 ft | 445 kts | 240° |
| 2026-04-24 02:58 | 32.26416 | 106.60249 | 36219 ft | 445 kts | 240° |
| 2026-04-24 02:58 | 32.22666 | 106.54305 | 36186 ft | 447 kts | 240° |
| 2026-04-24 02:59 | 32.18936 | 106.48402 | 36195 ft | 447 kts | 240° |
| 2026-04-24 02:59 | 32.15190 | 106.42487 | 36206 ft | 447 kts | 240° |
| 2026-04-24 03:00 | 32.11411 | 106.36528 | 36202 ft | 448 kts | 240° |
| 2026-04-24 03:00 | 32.07652 | 106.30610 | 36222 ft | 450 kts | 239° |
| 2026-04-24 03:01 | 32.03862 | 106.24655 | 36212 ft | 450 kts | 240° |
| 2026-04-24 03:01 | 32.00064 | 106.18694 | 36213 ft | 451 kts | 240° |
| 2026-04-24 03:02 | 31.96243 | 106.12710 | 36216 ft | 449 kts | 240° |
| 2026-04-24 03:02 | 31.92451 | 106.06779 | 36221 ft | 449 kts | 240° |
| 2026-04-24 03:03 | 31.88646 | 106.00835 | 36215 ft | 449 kts | 240° |
| 2026-04-24 03:03 | 31.84844 | 105.94900 | 36217 ft | 449 kts | 240° |
| 2026-04-24 03:04 | 31.81024 | 105.88955 | 36215 ft | 449 kts | 240° |
| 2026-04-24 03:04 | 31.77215 | 105.83031 | 36208 ft | 449 kts | 240° |
| 2026-04-24 03:05 | 31.73402 | 105.77116 | 36204 ft | 448 kts | 240° |
| 2026-04-24 03:05 | 31.69597 | 105.71214 | 36204 ft | 449 kts | 240° |